»·PEaware :: N221XG KSNA-KSBA

N221XG :: KSNA-KSBA

FLIGHT INFORMATION

Flight Status: Arrived
Operator: Privately registered:
United States
More flights under this callsign
Pilot: Ryan L. (9775)
Aircraft: BEECH AIRCRAFT SUPER KING AIR 350
(B350)
More flights by this aircraft type
Origin: KSNA John Wayne-Orange Co
United States
Destination: KSBA Santa Barbara Mun
United States
More flights between these airports :: More routes between these airports
Route: +CHANL3 SXC V208 VTU VTU282 KWANG
File this flight plan on PilotEdge
Remarks:
Altitude:
(Current/Filed)
8,000ft
Speed:
(Current/Filed)
260kts
Departed: 13-Oct-19 07:29 AM
Arrived: 13-Oct-19 08:06 AM
Distance/Time
Traveled:
108nm/0:37
Distance/Time
To Go:
Arrived

Flight Plot

Page will automatically refresh every two minutes.

Flight plan parsing failed; only flown route is shown


Map Options




Map Legend


Flown Route
Filed Route
Departure Airport
Arrival Airport
Navaid (VOR, NDB)
Fix

Horizontal Profiles

Position Reports

Time Latitude Longitude Heading Altitude Ground
Speed
13-Oct-19 07:10 33.669707 -117.875027 31 61ft 0kts
13-Oct-19 07:11 33.669707 -117.875027 31 61ft 0kts
13-Oct-19 07:12 33.669707 -117.875027 31 61ft 0kts
13-Oct-19 07:13 33.669707 -117.875027 31 61ft 0kts
13-Oct-19 07:14 33.669707 -117.875027 31 61ft 0kts
13-Oct-19 07:15 33.669707 -117.875027 31 61ft 0kts
13-Oct-19 07:16 33.669707 -117.875027 31 61ft 0kts
13-Oct-19 07:17 33.669707 -117.875027 31 61ft 0kts
13-Oct-19 07:18 33.669707 -117.875027 31 61ft 0kts
13-Oct-19 07:19 33.669707 -117.875027 31 61ft 0kts
13-Oct-19 07:20 33.669707 -117.875027 32 61ft 0kts
13-Oct-19 07:21 33.669707 -117.875027 32 61ft 0kts
13-Oct-19 07:21 33.669707 -117.875027 31 61ft 0kts
13-Oct-19 07:23 33.669707 -117.875027 31 61ft 0kts
13-Oct-19 07:23 33.669667 -117.874408 84 61ft 8kts
13-Oct-19 07:24 33.672358 -117.872445 28 61ft 14kts
13-Oct-19 07:25 33.676110 -117.870070 28 61ft 15kts
13-Oct-19 07:27 33.680631 -117.867429 29 61ft 14kts
13-Oct-19 07:27 33.680582 -117.865699 206 61ft 0kts
13-Oct-19 07:28 33.662788 -117.877267 207 724ft 138kts
13-Oct-19 07:29 33.623297 -117.890560 186 3009ft 157kts
13-Oct-19 07:30 33.579837 -117.900901 194 4853ft 169kts
13-Oct-19 07:31 33.536737 -117.936098 212 5066ft 205kts
13-Oct-19 07:32 33.488413 -117.975559 212 6844ft 209kts
13-Oct-19 07:33 33.439036 -118.016433 212 8016ft 237kts
13-Oct-19 07:34 33.383138 -118.062327 212 7998ft 243kts
13-Oct-19 07:35 33.329439 -118.111078 239 7980ft 246kts
13-Oct-19 07:36 33.344024 -118.188680 293 7999ft 251kts
13-Oct-19 07:37 33.355982 -118.270520 277 7999ft 250kts
13-Oct-19 07:38 33.366605 -118.352857 277 7999ft 250kts
13-Oct-19 07:39 33.388035 -118.431510 297 8000ft 250kts
13-Oct-19 07:40 33.427709 -118.499223 313 8001ft 250kts
13-Oct-19 07:41 33.473861 -118.561960 310 8000ft 250kts
13-Oct-19 07:42 33.518683 -118.625775 310 8000ft 250kts
13-Oct-19 07:43 33.562384 -118.689302 309 7998ft 250kts
13-Oct-19 07:44 33.606757 -118.753693 309 7999ft 250kts
13-Oct-19 07:45 33.651413 -118.818343 309 8008ft 250kts
13-Oct-19 07:46 33.695974 -118.882985 309 8003ft 251kts
13-Oct-19 07:47 33.740722 -118.947961 309 7998ft 251kts
13-Oct-19 07:48 33.786067 -119.011930 313 7995ft 251kts
13-Oct-19 07:49 33.838800 -119.066761 321 7990ft 250kts
13-Oct-19 07:50 33.893509 -119.118662 323 7990ft 249kts
13-Oct-19 07:51 33.948706 -119.169548 323 7990ft 249kts
13-Oct-19 07:52 34.003379 -119.221376 322 7991ft 249kts
13-Oct-19 07:53 34.057954 -119.273417 322 7990ft 249kts
13-Oct-19 07:54 34.112031 -119.325074 322 7990ft 249kts
13-Oct-19 07:55 34.166235 -119.376965 322 7990ft 248kts
13-Oct-19 07:56 34.219895 -119.428405 322 7659ft 239kts
13-Oct-19 07:57 34.272680 -119.479077 322 5641ft 239kts
13-Oct-19 07:58 34.316714 -119.535442 294 3865ft 231kts
13-Oct-19 07:59 34.350770 -119.595747 323 2998ft 208kts
13-Oct-19 08:00 34.395101 -119.635778 323 2488ft 197kts
13-Oct-19 08:01 34.421206 -119.688169 291 2023ft 151kts
13-Oct-19 08:02 34.429640 -119.734025 270 1378ft 138kts
13-Oct-19 08:03 34.429009 -119.778542 268 805ft 122kts
13-Oct-19 08:04 34.428273 -119.817805 268 265ft 112kts
13-Oct-19 08:05 34.427643 -119.847671 268 18ft 31kts
13-Oct-19 08:06 34.427490 -119.854211 252 18ft 3kts
13-Oct-19 08:07 34.426453 -119.852152 85 18ft 15kts
13-Oct-19 08:08 34.426587 -119.846010 88 18ft 19kts
13-Oct-19 08:09 34.426738 -119.839388 80 18ft 19kts
13-Oct-19 08:10 34.422171 -119.837056 166 18ft 19kts
13-Oct-19 08:11 34.420828 -119.835847 255 18ft 0kts
13-Oct-19 08:12 34.420828 -119.835847 255 18ft 0kts

Navigation Log

Ident Type
Flight plan parsing failed, navigation log unavailable